Time;durP1;ratioP1;P1;durP2;ratioP2;P2;SDS_P1;SDS_P2;PMS_P1;PMS_P2;Temp;Humidity;BMP_temperature;BMP_pressure;BME280_temperature;BME280_humidity;BME280_pressure;Samples;Min_cycle;Max_cycle;Signal;HPM_P1;HPM_P2
2023/05/29 00:01:10;;;;;;;13.68;5.10;;;;;;;20.49;44.09;99994.22;4913153;28;20105;-86
2023/05/29 00:03:37;;;;;;;8.27;4.55;;;;;;;20.45;44.08;99989.41;4963376;28;20051;-88
2023/05/29 00:06:05;;;;;;;12.63;5.35;;;;;;;20.40;44.90;99998.06;4913945;28;20050;-88
2023/05/29 00:08:32;;;;;;;10.80;4.63;;;;;;;20.41;44.45;99997.06;4944086;28;20128;-89
2023/05/29 00:10:59;;;;;;;9.88;4.28;;;;;;;20.41;43.08;100002.47;4944341;28;20071;-86
2023/05/29 00:13:26;;;;;;;9.50;4.85;;;;;;;20.45;42.72;99998.31;4925682;28;20517;-87
2023/05/29 00:15:53;;;;;;;11.05;5.05;;;;;;;20.47;43.59;100003.53;4947463;28;20057;-88
2023/05/29 00:18:20;;;;;;;7.80;4.00;;;;;;;20.44;43.38;99999.38;4963169;28;20053;-88
2023/05/29 00:20:47;;;;;;;8.98;3.88;;;;;;;20.43;43.08;99986.91;4971391;28;20050;-88
2023/05/29 00:23:15;;;;;;;8.40;3.95;;;;;;;20.45;43.02;99989.41;4980119;28;20510;-88
2023/05/29 00:25:41;;;;;;;8.93;4.00;;;;;;;20.42;43.92;99981.72;4965406;28;20039;-88
2023/05/29 00:28:09;;;;;;;9.25;4.22;;;;;;;20.42;43.03;99990.63;4950621;28;20101;-87
2023/05/29 00:30:36;;;;;;;12.65;4.95;;;;;;;20.36;43.22;99986.84;4949942;28;20078;-86
2023/05/29 00:33:03;;;;;;;12.38;4.13;;;;;;;20.32;43.81;99990.13;4921982;28;20047;-88
2023/05/29 00:35:30;;;;;;;8.57;4.40;;;;;;;20.36;42.87;99988.72;4909761;28;20050;-87
2023/05/29 00:37:57;;;;;;;7.32;4.35;;;;;;;20.36;43.16;99983.34;4931397;28;20954;-87
2023/05/29 00:40:25;;;;;;;11.65;4.55;;;;;;;20.35;42.84;99974.41;4939903;28;20051;-88
2023/05/29 00:42:52;;;;;;;9.90;4.07;;;;;;;20.33;43.02;99973.78;4940831;28;20047;-87
2023/05/29 00:45:18;;;;;;;12.98;3.80;;;;;;;20.34;43.11;99971.91;4933370;28;20062;-87
2023/05/29 00:47:46;;;;;;;8.32;4.20;;;;;;;20.31;42.76;99972.28;4933225;28;20046;-87
2023/05/29 00:50:13;;;;;;;8.85;3.70;;;;;;;20.32;42.31;99971.25;4952059;28;20070;-87
2023/05/29 00:52:41;;;;;;;6.40;3.53;;;;;;;20.28;42.75;99970.81;4952083;28;20125;-89
2023/05/29 00:55:09;;;;;;;7.18;3.80;;;;;;;20.28;41.79;99968.13;4971975;28;20046;-88
2023/05/29 00:57:37;;;;;;;9.18;4.18;;;;;;;20.27;41.38;99977.22;4961104;28;20074;-87
2023/05/29 01:00:07;;;;;;;9.02;4.53;;;;;;;20.16;44.13;99967.81;4976463;28;20133;-86
2023/05/29 01:02:36;;;;;;;8.75;4.43;;;;;;;20.11;45.15;99972.13;4960654;28;20073;-88
2023/05/29 01:05:03;;;;;;;7.28;4.28;;;;;;;20.09;44.71;99979.56;4971698;28;20061;-87
2023/05/29 01:07:32;;;;;;;9.50;4.50;;;;;;;20.02;44.94;99971.41;4952959;28;20046;-86
2023/05/29 01:09:59;;;;;;;11.40;5.03;;;;;;;20.03;44.16;99974.97;4950676;28;20051;-87
2023/05/29 01:12:40;;;;;;;8.93;4.25;;;;;;;19.94;45.09;99968.88;4950018;28;20051;-87
2023/05/29 01:15:16;;;;;;;8.40;4.63;;;;;;;19.87;44.70;99970.66;4953087;28;20051;-89
2023/05/29 01:18:08;;;;;;;8.02;3.92;;;;;;;19.90;44.03;99973.00;4963848;28;20461;-88
2023/05/29 01:21:04;;;;;;;10.57;4.10;;;;;;;19.74;44.30;99968.66;4972708;28;20062;-88
2023/05/29 01:24:00;;;;;;;10.60;3.78;;;;;;;19.70;45.47;99965.53;4970566;28;20053;-87
2023/05/29 01:26:58;;;;;;;5.47;3.90;;;;;;;19.69;45.01;99969.28;4939638;28;20059;-88
2023/05/29 01:29:27;;;;;;;7.85;3.78;;;;;;;19.85;43.65;99967.34;4936241;28;20426;-88
2023/05/29 01:31:54;;;;;;;7.85;3.75;;;;;;;19.88;43.11;99962.41;4939819;28;20050;-88
2023/05/29 01:34:21;;;;;;;10.63;4.13;;;;;;;19.91;43.03;99955.78;4970331;28;20473;-87
2023/05/29 01:36:48;;;;;;;9.00;4.10;;;;;;;19.89;43.26;99955.97;4943963;28;20054;-87
2023/05/29 01:39:15;;;;;;;10.05;3.88;;;;;;;19.86;43.36;99956.34;4974375;28;20504;-87
2023/05/29 01:41:43;;;;;;;9.02;3.70;;;;;;;19.79;44.29;99962.72;4990073;28;20054;-88
2023/05/29 01:44:11;;;;;;;7.82;4.05;;;;;;;19.73;44.58;99956.25;4937219;28;20050;-89
2023/05/29 01:46:40;;;;;;;15.10;4.22;;;;;;;19.71;44.63;99964.50;4947143;28;20051;-88
2023/05/29 01:49:09;;;;;;;8.73;4.00;;;;;;;19.71;44.19;99959.13;4957409;28;20043;-89
2023/05/29 01:51:36;;;;;;;7.60;3.45;;;;;;;19.69;43.87;99946.84;4942516;28;20585;-88
2023/05/29 01:54:04;;;;;;;5.63;3.70;;;;;;;19.69;44.01;99958.50;4928565;28;20050;-88
2023/05/29 01:56:31;;;;;;;6.68;3.50;;;;;;;19.68;43.74;99961.38;4943174;28;20445;-89
2023/05/29 01:58:58;;;;;;;8.40;4.13;;;;;;;19.64;43.97;99957.34;4908768;28;20297;-88
2023/05/29 02:01:25;;;;;;;8.45;4.75;;;;;;;19.65;43.85;99957.16;4928390;28;20133;-89
2023/05/29 02:03:53;;;;;;;8.13;3.50;;;;;;;19.67;43.38;99959.72;4970520;28;20082;-89
2023/05/29 02:06:21;;;;;;;7.57;4.25;;;;;;;19.63;43.97;99956.50;4963960;28;20077;-88
2023/05/29 02:08:47;;;;;;;10.50;3.95;;;;;;;19.63;43.85;99955.69;4957815;28;20051;-87
2023/05/29 02:11:15;;;;;;;8.07;3.92;;;;;;;19.58;44.15;99953.56;4941287;28;20047;-88
2023/05/29 02:13:42;;;;;;;8.10;4.07;;;;;;;19.57;44.01;99956.47;4941089;28;20059;-88
2023/05/29 02:16:09;;;;;;;9.00;3.65;;;;;;;19.52;44.46;99951.66;4936948;28;20131;-87
2023/05/29 02:18:36;;;;;;;8.00;3.65;;;;;;;19.47;44.93;99949.53;4942278;28;20091;-88
2023/05/29 02:21:05;;;;;;;7.90;4.03;;;;;;;19.46;44.73;99952.41;4954860;28;20125;-86
2023/05/29 02:23:32;;;;;;;6.70;3.83;;;;;;;19.42;44.80;99949.25;4911040;28;20047;-88
2023/05/29 02:25:59;;;;;;;9.02;3.55;;;;;;;19.44;44.73;99960.69;4956265;28;20046;-87
2023/05/29 02:28:27;;;;;;;9.77;4.13;;;;;;;19.41;44.47;99950.28;4960692;28;20042;-86
2023/05/29 02:30:54;;;;;;;9.48;3.83;;;;;;;19.38;44.64;99958.72;4943855;28;20511;-87
2023/05/29 02:33:22;;;;;;;7.80;3.45;;;;;;;19.38;44.37;99961.41;4971230;28;20466;-88
2023/05/29 02:35:49;;;;;;;8.02;3.95;;;;;;;19.37;44.12;99958.94;4954278;28;20580;-89
2023/05/29 02:38:15;;;;;;;7.22;3.38;;;;;;;19.38;44.32;99966.81;4957054;28;20038;-89
2023/05/29 02:40:42;;;;;;;9.20;4.10;;;;;;;19.36;44.63;99968.03;4961377;28;20045;-88
2023/05/29 02:43:12;;;;;;;8.15;3.85;;;;;;;19.28;45.25;99964.44;4974466;28;20054;-85
2023/05/29 02:45:39;;;;;;;11.45;3.80;;;;;;;19.27;45.04;99961.94;4960874;28;20390;-86
2023/05/29 02:48:06;;;;;;;6.40;3.50;;;;;;;19.24;44.67;99960.44;4954792;28;20046;-87
2023/05/29 02:50:33;;;;;;;7.47;3.60;;;;;;;19.21;45.10;99963.53;4954773;28;20429;-87
2023/05/29 02:53:00;;;;;;;7.40;3.78;;;;;;;19.17;44.91;99953.31;4958107;28;20043;-87
2023/05/29 02:55:27;;;;;;;8.13;4.05;;;;;;;19.15;45.33;99964.25;4967537;28;20154;-86
2023/05/29 02:57:55;;;;;;;8.63;3.83;;;;;;;19.09;45.72;99954.25;4970549;28;20176;-87
2023/05/29 03:00:22;;;;;;;8.07;4.13;;;;;;;19.08;46.38;99956.13;4952752;28;20055;-88
2023/05/29 03:02:49;;;;;;;10.00;4.05;;;;;;;19.01;46.34;99952.50;4962046;28;20054;-86
2023/05/29 03:05:17;;;;;;;8.68;4.05;;;;;;;18.99;46.34;99951.03;4957285;28;20070;-88
2023/05/29 03:07:44;;;;;;;9.07;4.05;;;;;;;18.98;46.41;99952.03;4960078;28;20563;-88
2023/05/29 03:10:12;;;;;;;7.45;3.90;;;;;;;18.92;45.99;99953.63;4944965;28;20043;-88
2023/05/29 03:12:39;;;;;;;11.43;4.20;;;;;;;18.90;46.33;99961.03;4933819;28;20043;-87
2023/05/29 03:15:07;;;;;;;6.35;4.00;;;;;;;18.87;46.16;99956.03;4948798;28;20047;-88
2023/05/29 03:17:37;;;;;;;5.63;3.75;;;;;;;18.86;46.56;99957.06;4940419;28;20049;-89
2023/05/29 03:20:10;;;;;;;7.43;3.47;;;;;;;18.85;46.25;99956.25;4959328;28;20055;-87
2023/05/29 03:22:37;;;;;;;7.90;3.65;;;;;;;18.83;46.15;99963.66;4912045;28;20059;-87
2023/05/29 03:25:05;;;;;;;6.97;3.45;;;;;;;18.80;45.86;99961.34;4923226;28;20050;-86
2023/05/29 03:27:33;;;;;;;7.95;3.58;;;;;;;18.80;45.95;99966.72;4961183;28;20113;-87
2023/05/29 03:30:07;;;;;;;6.82;3.83;;;;;;;18.78;46.32;99960.69;4938792;28;20046;-87
2023/05/29 03:32:34;;;;;;;6.28;3.40;;;;;;;18.71;46.81;99943.59;4927579;28;20047;-88
2023/05/29 03:35:03;;;;;;;8.30;4.50;;;;;;;18.64;47.57;99953.41;4927683;28;20129;-88
2023/05/29 03:37:30;;;;;;;5.80;3.70;;;;;;;18.63;47.78;99954.44;4949724;28;20050;-87
2023/05/29 03:39:58;;;;;;;7.03;3.65;;;;;;;18.57;47.92;99949.78;4960131;28;20045;-88
2023/05/29 03:42:25;;;;;;;8.25;4.72;;;;;;;18.58;48.55;99957.69;4951384;28;20061;-88
2023/05/29 03:44:52;;;;;;;9.43;3.85;;;;;;;18.53;48.94;99949.34;4924818;28;20117;-87
2023/05/29 03:47:22;;;;;;;11.07;4.45;;;;;;;18.51;49.24;99946.00;4956807;28;20138;-88
2023/05/29 03:49:51;;;;;;;8.57;4.28;;;;;;;18.55;49.29;99941.09;4956997;28;20093;-87
2023/05/29 03:52:17;;;;;;;9.88;4.25;;;;;;;18.70;49.52;99944.63;4931099;28;20054;-87
2023/05/29 03:54:44;;;;;;;9.63;4.07;;;;;;;19.26;48.95;99944.94;4930403;28;20043;-87
2023/05/29 03:57:11;;;;;;;11.05;4.22;;;;;;;19.81;48.25;99952.59;4929700;28;20043;-89
2023/05/29 03:59:38;;;;;;;8.68;4.70;;;;;;;20.40;47.46;99960.31;4923090;28;20066;-87
2023/05/29 04:02:06;;;;;;;6.85;4.10;;;;;;;20.99;46.57;99962.59;4947111;28;20046;-86
2023/05/29 04:04:35;;;;;;;8.95;4.43;;;;;;;21.49;45.05;99970.47;4923693;28;20134;-88
2023/05/29 04:07:02;;;;;;;9.90;4.55;;;;;;;21.95;43.90;99969.72;4942231;28;20050;-87
2023/05/29 04:09:29;;;;;;;6.10;4.10;;;;;;;22.25;42.37;99962.06;4914597;28;20149;-87
2023/05/29 04:11:55;;;;;;;7.72;4.50;;;;;;;22.25;41.77;99966.66;4942019;28;20079;-87
2023/05/29 04:14:22;;;;;;;9.80;4.40;;;;;;;21.95;42.26;99971.59;4964564;28;20050;-88
2023/05/29 04:16:51;;;;;;;6.82;3.97;;;;;;;21.82;42.87;99975.13;4958778;28;20047;-89
2023/05/29 04:19:18;;;;;;;7.28;4.20;;;;;;;21.60;43.46;99982.53;4947234;28;20378;-87
2023/05/29 04:21:47;;;;;;;7.68;4.70;;;;;;;21.25;43.86;99982.63;4946831;28;20050;-87
2023/05/29 04:24:14;;;;;;;10.43;4.78;;;;;;;20.97;44.64;99993.50;4954490;28;20038;-88
2023/05/29 04:26:41;;;;;;;9.27;4.72;;;;;;;20.79;45.27;99994.03;4942407;28;20078;-87
2023/05/29 04:29:08;;;;;;;7.25;4.40;;;;;;;20.66;45.38;100002.03;4940598;28;20047;-86
2023/05/29 04:31:40;;;;;;;9.43;4.65;;;;;;;20.52;45.95;100006.47;4921888;28;20054;-88
2023/05/29 04:34:07;;;;;;;7.82;4.50;;;;;;;20.42;46.19;100004.13;4941934;28;20054;-87
2023/05/29 04:36:37;;;;;;;8.95;4.57;;;;;;;20.34;46.22;100012.34;4947417;28;20456;-88
2023/05/29 04:39:11;;;;;;;6.15;4.45;;;;;;;20.21;46.25;100015.78;4959287;28;20047;-88
2023/05/29 04:41:40;;;;;;;9.43;4.28;;;;;;;20.12;45.81;100016.94;4954339;28;20042;-88
2023/05/29 04:44:11;;;;;;;11.65;4.80;;;;;;;20.01;44.86;100007.50;4939729;28;20070;-89
2023/05/29 04:46:44;;;;;;;6.70;4.13;;;;;;;19.92;44.99;100020.28;4955146;28;20046;-87
2023/05/29 04:49:15;;;;;;;8.55;4.45;;;;;;;19.84;45.06;100020.38;4936237;28;20050;-86
2023/05/29 04:51:42;;;;;;;10.77;5.57;;;;;;;19.73;44.93;100021.72;4966607;28;20074;-87
2023/05/29 04:54:10;;;;;;;9.82;4.13;;;;;;;19.72;45.25;100035.41;4959280;28;20053;-87
2023/05/29 04:56:42;;;;;;;7.97;4.35;;;;;;;19.61;45.42;100036.69;4946035;28;20363;-88
2023/05/29 04:59:12;;;;;;;11.00;3.95;;;;;;;19.52;45.02;100038.66;4948437;28;20046;-88
2023/05/29 05:01:39;;;;;;;7.93;4.57;;;;;;;19.47;45.37;100037.56;4960063;28;20050;-88
2023/05/29 05:04:06;;;;;;;7.60;4.25;;;;;;;19.44;45.26;100040.66;4941038;28;20114;-88
2023/05/29 05:06:35;;;;;;;8.40;4.47;;;;;;;19.36;45.71;100040.72;4947483;28;20058;-88
2023/05/29 05:09:02;;;;;;;8.32;4.10;;;;;;;19.33;46.07;100047.31;4966119;28;20058;-88
2023/05/29 05:11:30;;;;;;;9.30;4.07;;;;;;;19.34;46.05;100050.88;4953349;28;20050;-87
2023/05/29 05:13:56;;;;;;;9.18;4.18;;;;;;;19.30;46.46;100048.53;4922606;28;20446;-88
2023/05/29 05:16:23;;;;;;;10.48;4.03;;;;;;;19.33;46.52;100049.19;4922489;28;20051;-88
2023/05/29 05:18:51;;;;;;;6.32;3.80;;;;;;;19.35;46.63;100053.34;4957536;28;20054;-87
2023/05/29 05:21:18;;;;;;;7.97;3.92;;;;;;;19.37;46.52;100051.31;4955430;28;20053;-88
2023/05/29 05:23:46;;;;;;;7.95;4.00;;;;;;;19.42;46.79;100059.66;4946299;28;20485;-88
2023/05/29 05:26:26;;;;;;;8.57;4.20;;;;;;;19.42;47.04;100061.53;4951081;28;20054;-87
2023/05/29 05:28:53;;;;;;;8.05;3.63;;;;;;;19.43;46.98;100072.09;4939460;28;20313;-88
2023/05/29 05:31:23;;;;;;;7.18;4.28;;;;;;;19.41;45.41;100066.09;4935440;28;20529;-88
2023/05/29 05:33:50;;;;;;;9.75;4.00;;;;;;;19.39;43.71;100068.13;4906611;28;20059;-89
2023/05/29 05:36:18;;;;;;;9.10;3.80;;;;;;;19.39;43.66;100070.81;4942243;28;20521;-87
2023/05/29 05:38:48;;;;;;;5.85;3.67;;;;;;;19.43;43.62;100063.19;4944738;28;20047;-88
2023/05/29 05:41:15;;;;;;;7.25;3.65;;;;;;;19.45;43.50;100069.22;4912346;28;20537;-87
2023/05/29 05:43:41;;;;;;;7.97;3.28;;;;;;;19.48;43.96;100077.75;4933962;28;20055;-89
2023/05/29 05:46:15;;;;;;;9.80;3.70;;;;;;;19.51;43.71;100074.72;4956660;28;20054;-88
2023/05/29 05:48:42;;;;;;;8.02;3.67;;;;;;;19.57;43.77;100083.91;4914452;28;20099;-87
2023/05/29 05:51:10;;;;;;;10.23;4.00;;;;;;;19.59;43.64;100075.59;4929322;28;20042;-89
2023/05/29 05:53:39;;;;;;;7.10;3.60;;;;;;;19.59;43.40;100091.78;4928944;28;20070;-87
2023/05/29 05:56:06;;;;;;;6.25;3.90;;;;;;;19.60;43.49;100091.59;4918921;28;20569;-89
2023/05/29 05:58:34;;;;;;;6.70;3.30;;;;;;;19.65;43.50;100099.94;4956835;28;20058;-88
2023/05/29 06:01:07;;;;;;;11.85;3.90;;;;;;;19.62;43.30;100097.63;4925940;28;20338;-88
2023/05/29 06:03:35;;;;;;;7.35;3.58;;;;;;;19.67;43.82;100102.50;4942693;28;20046;-88
2023/05/29 06:06:06;;;;;;;5.53;3.10;;;;;;;19.74;43.64;100100.69;4962007;28;20046;-89
2023/05/29 06:08:33;;;;;;;8.10;4.07;;;;;;;19.77;43.70;100099.47;4944259;28;20181;-88
2023/05/29 06:11:00;;;;;;;7.03;3.72;;;;;;;19.83;43.53;100104.13;4974885;28;20038;-88
2023/05/29 06:13:28;;;;;;;7.95;3.63;;;;;;;19.78;43.69;100091.22;4969414;28;20046;-88
2023/05/29 06:16:03;;;;;;;7.00;4.25;;;;;;;19.83;43.88;100101.44;4985964;28;20587;-88
2023/05/29 06:18:29;;;;;;;7.18;3.88;;;;;;;19.84;43.54;100095.84;4972255;28;20054;-87
2023/05/29 06:20:56;;;;;;;5.50;3.30;;;;;;;19.88;43.98;100094.44;4958418;28;20050;-88
2023/05/29 06:23:25;;;;;;;7.15;4.03;;;;;;;20.00;44.00;100097.50;4968609;28;20057;-89
2023/05/29 06:25:52;;;;;;;12.13;4.07;;;;;;;19.96;43.72;100098.88;4955051;28;20053;-87
2023/05/29 06:28:19;;;;;;;7.45;3.40;;;;;;;19.94;43.38;100099.06;4948037;28;20133;-88
2023/05/29 06:30:47;;;;;;;10.50;4.10;;;;;;;19.95;43.45;100098.06;4971416;28;20060;-88
2023/05/29 06:33:13;;;;;;;7.57;3.47;;;;;;;20.01;43.71;100103.72;4985596;28;20050;-89
2023/05/29 06:35:41;;;;;;;10.63;4.32;;;;;;;19.99;43.45;100100.38;4958312;28;20082;-89
2023/05/29 06:38:08;;;;;;;7.35;3.25;;;;;;;20.01;43.18;100103.72;4960999;28;20050;-89
2023/05/29 06:40:36;;;;;;;9.95;3.95;;;;;;;19.99;43.10;100106.59;4976134;28;20047;-89
2023/05/29 06:43:03;;;;;;;9.02;3.55;;;;;;;19.93;43.46;100110.88;4960214;28;20093;-87
2023/05/29 06:45:45;;;;;;;5.20;3.00;;;;;;;19.96;43.33;100106.97;4945288;28;20073;-88
2023/05/29 06:48:12;;;;;;;5.60;3.63;;;;;;;19.98;43.41;100110.31;4951110;28;20449;-89
2023/05/29 06:50:40;;;;;;;7.40;3.83;;;;;;;20.00;43.26;100102.03;4942491;28;24968;-88
2023/05/29 06:53:30;;;;;;;6.05;3.33;;;;;;;20.03;44.07;100110.59;4947105;28;20059;-88
2023/05/29 06:55:58;;;;;;;9.48;3.97;;;;;;;20.00;43.50;100112.81;4940776;28;20422;-91
2023/05/29 06:58:26;;;;;;;6.95;3.63;;;;;;;20.00;43.62;100105.56;4972304;28;20042;-89
2023/05/29 07:00:53;;;;;;;4.65;3.35;;;;;;;20.04;43.97;100114.09;4962170;28;20054;-88
2023/05/29 07:03:28;;;;;;;10.80;3.65;;;;;;;20.09;43.69;100108.97;4969274;28;20043;-89
2023/05/29 07:05:56;;;;;;;9.45;3.90;;;;;;;20.14;43.80;100110.06;4979127;28;20073;-88
2023/05/29 07:08:25;;;;;;;8.02;3.35;;;;;;;20.16;44.25;100117.97;4963429;28;20326;-88
2023/05/29 07:10:52;;;;;;;7.13;3.90;;;;;;;20.22;44.45;100113.66;4967506;28;20050;-89
2023/05/29 07:13:20;;;;;;;7.90;3.45;;;;;;;20.21;43.72;100123.63;4963514;28;20054;-89
2023/05/29 07:15:50;;;;;;;7.40;3.53;;;;;;;20.21;43.86;100122.81;4979464;28;20066;-89
2023/05/29 07:18:21;;;;;;;6.07;3.50;;;;;;;20.23;43.43;100124.28;4941593;28;20529;-89
2023/05/29 07:20:49;;;;;;;9.73;3.90;;;;;;;20.19;43.85;100117.59;4960784;28;20051;-89
2023/05/29 07:23:19;;;;;;;7.25;3.47;;;;;;;20.27;43.90;100116.63;4974829;28;20050;-89
2023/05/29 07:25:46;;;;;;;8.80;3.25;;;;;;;20.30;43.51;100111.69;4950764;28;20336;-89
2023/05/29 07:28:13;;;;;;;6.53;3.53;;;;;;;20.35;44.42;100121.88;4957190;28;20051;-88
2023/05/29 07:30:48;;;;;;;9.07;3.42;;;;;;;20.39;44.31;100121.31;4943921;28;20050;-88
2023/05/29 07:33:15;;;;;;;8.00;3.97;;;;;;;20.43;44.40;100112.84;4965821;28;20475;-88
2023/05/29 07:35:43;;;;;;;12.10;4.00;;;;;;;20.41;43.71;100118.44;4949780;28;20621;-89
2023/05/29 07:38:10;;;;;;;7.10;3.65;;;;;;;20.46;42.86;100117.88;4982183;28;20044;-88
2023/05/29 07:40:41;;;;;;;6.95;3.63;;;;;;;20.41;42.70;100125.69;4951328;28;20501;-89
2023/05/29 07:43:20;;;;;;;5.57;3.45;;;;;;;20.42;42.99;100122.78;4972423;28;20050;-87
2023/05/29 07:45:52;;;;;;;6.90;3.90;;;;;;;20.39;43.52;100136.66;4958386;28;20343;-89
2023/05/29 07:48:19;;;;;;;10.68;4.22;;;;;;;20.39;43.04;100121.31;4971657;28;20051;-89
2023/05/29 07:50:50;;;;;;;9.57;3.40;;;;;;;20.38;43.25;100116.97;4972964;28;20046;-90
2023/05/29 07:53:23;;;;;;;7.57;3.55;;;;;;;20.39;42.58;100117.78;4961057;28;20046;-90
2023/05/29 07:55:50;;;;;;;7.90;4.03;;;;;;;20.45;42.56;100125.09;4984516;28;20456;-89
2023/05/29 07:58:17;;;;;;;7.15;3.33;;;;;;;20.49;43.36;100122.88;4950173;28;20050;-88
2023/05/29 08:00:45;;;;;;;8.23;4.05;;;;;;;20.53;43.81;100127.69;4976268;28;20066;-89
2023/05/29 08:03:13;;;;;;;7.15;4.22;;;;;;;20.50;43.28;100138.84;4930752;28;20050;-90
2023/05/29 08:06:00;;;;;;;6.85;3.30;;;;;;;20.49;43.22;100130.97;4948510;28;20053;-91
2023/05/29 08:08:28;;;;;;;7.90;3.65;;;;;;;20.52;42.99;100136.78;4974116;28;20050;-91
2023/05/29 08:10:55;;;;;;;7.72;4.20;;;;;;;20.56;43.24;100134.59;4945773;28;20046;-90
2023/05/29 08:13:23;;;;;;;6.10;3.35;;;;;;;20.58;43.22;100138.75;4953238;28;20058;-90
2023/05/29 08:15:50;;;;;;;8.23;3.85;;;;;;;20.58;43.43;100127.97;4976648;28;20046;-89
2023/05/29 08:18:17;;;;;;;5.47;3.20;;;;;;;20.60;43.22;100125.06;4959789;28;20082;-88
2023/05/29 08:20:44;;;;;;;7.65;3.67;;;;;;;20.63;43.40;100137.34;4948030;28;20381;-90
2023/05/29 08:23:11;;;;;;;7.70;3.63;;;;;;;20.60;42.71;100147.47;4944005;28;20074;-90
2023/05/29 08:25:38;;;;;;;10.68;4.05;;;;;;;20.62;43.20;100143.78;4948182;28;20063;-91
2023/05/29 08:28:06;;;;;;;6.05;3.25;;;;;;;20.60;43.14;100136.69;4948097;28;20533;-89
2023/05/29 08:30:32;;;;;;;8.15;3.33;;;;;;;20.72;43.07;100133.47;4950881;28;20104;-88
2023/05/29 08:32:59;;;;;;;7.18;3.40;;;;;;;20.66;43.19;100143.19;4946715;28;20047;-90
2023/05/29 08:35:26;;;;;;;8.50;4.13;;;;;;;20.68;43.59;100140.28;4956156;28;20053;-88
2023/05/29 08:37:53;;;;;;;6.00;3.05;;;;;;;20.73;42.92;100117.06;4950657;28;20065;-89
2023/05/29 08:40:20;;;;;;;8.50;3.88;;;;;;;20.85;44.00;100138.16;4943477;28;20100;-90
2023/05/29 08:43:13;;;;;;;7.47;3.13;;;;;;;20.73;42.60;100121.66;4935147;28;20043;-91
2023/05/29 08:45:42;;;;;;;8.00;3.42;;;;;;;20.83;43.19;100127.53;4958854;28;20584;-91
2023/05/29 08:48:10;;;;;;;6.38;3.55;;;;;;;20.87;43.07;100119.91;4944136;28;20047;-89
2023/05/29 08:50:47;;;;;;;8.23;4.03;;;;;;;20.90;42.91;100128.44;4933857;28;20510;-89
2023/05/29 08:53:15;;;;;;;5.70;3.85;;;;;;;20.90;42.40;100138.41;4945099;28;20047;-88
2023/05/29 08:55:42;;;;;;;7.78;3.65;;;;;;;20.88;41.85;100125.09;4915659;28;20141;-88
2023/05/29 08:58:11;;;;;;;8.38;3.92;;;;;;;20.86;41.93;100137.94;4962852;28;20045;-89
2023/05/29 09:00:38;;;;;;;8.05;3.67;;;;;;;20.92;41.52;100122.84;4934732;28;20445;-86
2023/05/29 09:03:05;;;;;;;6.55;3.55;;;;;;;20.91;42.01;100123.84;4964554;28;20174;-90
2023/05/29 09:05:33;;;;;;;6.90;4.00;;;;;;;20.99;41.54;100124.56;4953199;28;20572;-90
2023/05/29 09:08:00;;;;;;;10.25;4.13;;;;;;;21.00;41.72;100123.53;4949231;28;20058;-91
2023/05/29 09:10:27;;;;;;;5.97;3.75;;;;;;;21.03;41.65;100115.03;4953442;28;20050;-89
2023/05/29 09:12:56;;;;;;;5.88;3.80;;;;;;;21.02;41.55;100123.34;4938080;28;20066;-88
2023/05/29 09:15:23;;;;;;;6.45;3.67;;;;;;;21.08;42.50;100117.13;4941419;28;20496;-89
2023/05/29 09:18:04;;;;;;;7.18;3.33;;;;;;;21.11;41.43;100113.22;4942623;28;20061;-90
2023/05/29 09:20:30;;;;;;;7.50;3.63;;;;;;;21.18;41.47;100111.38;4911807;28;20565;-88
2023/05/29 09:23:13;;;;;;;7.20;3.78;;;;;;;21.15;41.86;100111.78;4926989;28;20078;-90
2023/05/29 09:25:53;;;;;;;7.75;3.65;;;;;;;21.20;41.78;100117.44;4920585;28;20074;-88
2023/05/29 09:28:28;;;;;;;7.75;3.70;;;;;;;21.28;42.10;100108.34;4929205;28;20059;-90
2023/05/29 09:30:55;;;;;;;8.32;3.97;;;;;;;21.30;41.61;100125.19;4931165;28;20221;-89
2023/05/29 09:33:23;;;;;;;6.65;3.63;;;;;;;21.39;41.95;100115.91;4941398;28;20061;-90
2023/05/29 09:35:59;;;;;;;5.30;3.28;;;;;;;21.42;40.35;100120.91;4962377;28;20071;-90
2023/05/29 09:38:29;;;;;;;8.50;3.78;;;;;;;21.46;41.35;100124.88;4938172;28;20058;-88
2023/05/29 09:41:22;;;;;;;6.90;3.95;;;;;;;21.45;41.16;100120.53;4937732;28;21034;-89
2023/05/29 09:43:54;;;;;;;7.80;3.58;;;;;;;21.41;40.41;100117.38;4924797;28;20070;-88
2023/05/29 09:46:22;;;;;;;11.40;4.07;;;;;;;21.46;40.95;100133.00;4954010;28;20281;-88
2023/05/29 09:48:49;;;;;;;6.43;3.40;;;;;;;21.48;39.39;100132.81;4965629;28;20050;-87
2023/05/29 09:51:23;;;;;;;6.93;3.47;;;;;;;21.43;39.69;100123.41;4944715;28;20154;-89
2023/05/29 09:53:53;;;;;;;7.30;3.45;;;;;;;21.52;41.16;100126.78;4934023;28;20053;-88
2023/05/29 09:56:22;;;;;;;6.25;3.72;;;;;;;;;;4931563;28;20042;-89
2023/05/29 09:58:49;;;;;;;6.65;3.47;;;;;;;21.53;40.35;100139.25;4947159;28;20078;-90
2023/05/29 10:01:17;;;;;;;7.25;3.50;;;;;;;21.52;40.50;100129.47;4900360;28;20121;-88
2023/05/29 10:03:45;;;;;;;9.20;3.63;;;;;;;21.57;40.51;100123.47;4893471;28;20074;-88
2023/05/29 10:06:17;;;;;;;7.20;3.90;;;;;;;21.61;40.62;100125.59;4890127;28;20469;-89
2023/05/29 10:08:53;;;;;;;5.53;3.15;;;;;;;21.63;40.58;100118.13;4925493;28;20046;-90
2023/05/29 10:11:27;;;;;;;7.30;3.80;;;;;;;21.63;39.50;100120.00;4925265;28;20053;-90
2023/05/29 10:13:56;;;;;;;4.82;3.60;;;;;;;21.72;40.55;100116.06;4917537;28;20269;-87
2023/05/29 10:16:24;;;;;;;8.85;3.58;;;;;;;21.71;39.86;100103.59;4924340;28;20069;-89
2023/05/29 10:18:55;;;;;;;6.43;3.25;;;;;;;21.74;40.74;100118.56;4941817;28;20055;-90
2023/05/29 10:21:22;;;;;;;7.80;3.67;;;;;;;21.81;39.74;100125.66;4950942;28;20046;-86
2023/05/29 10:23:49;;;;;;;6.72;3.70;;;;;;;21.82;40.12;100110.28;4921631;28;20043;-88
2023/05/29 10:26:29;;;;;;;12.13;4.18;;;;;;;21.79;39.57;100122.34;4959557;28;20047;-88
2023/05/29 10:29:05;;;;;;;6.03;3.45;;;;;;;21.81;38.79;100114.84;4946526;28;20066;-89
2023/05/29 10:31:52;;;;;;;5.88;3.78;;;;;;;21.81;39.96;100114.03;4954728;28;20051;-89
2023/05/29 10:34:56;;;;;;;7.70;3.45;;;;;;;21.80;38.26;100102.34;4951221;28;20070;-90
2023/05/29 10:37:40;;;;;;;7.78;3.88;;;;;;;21.79;39.06;100110.69;4952770;28;20051;-90
2023/05/29 10:40:12;;;;;;;6.80;3.63;;;;;;;21.89;38.61;100101.16;4952791;28;20572;-90
2023/05/29 10:42:52;;;;;;;6.70;3.40;;;;;;;21.98;38.41;100106.38;4927969;28;20047;-88
2023/05/29 10:45:31;;;;;;;5.38;3.78;;;;;;;21.94;36.37;100103.25;4947078;28;20038;-88
2023/05/29 10:48:10;;;;;;;5.43;3.33;;;;;;;21.95;36.27;100115.72;4954569;28;20058;-88
2023/05/29 10:50:39;;;;;;;8.05;3.95;;;;;;;21.97;37.15;100099.31;4949201;28;20623;-90
2023/05/29 10:53:10;;;;;;;6.20;3.50;;;;;;;21.98;35.75;100096.41;4919354;28;20046;-89
2023/05/29 10:55:38;;;;;;;6.00;3.40;;;;;;;22.02;36.39;100102.22;4944871;28;20057;-88
2023/05/29 10:58:12;;;;;;;9.07;4.07;;;;;;;21.97;36.12;100096.59;4936765;28;20473;-88
2023/05/29 11:00:42;;;;;;;8.27;3.75;;;;;;;22.00;36.75;100094.31;4941415;28;20053;-91
2023/05/29 11:03:12;;;;;;;6.55;3.75;;;;;;;22.06;37.19;100092.69;4951611;28;20606;-90
2023/05/29 11:05:59;;;;;;;8.65;4.03;;;;;;;22.02;35.43;100094.94;4932960;28;20046;-88
2023/05/29 11:08:58;;;;;;;5.03;3.50;;;;;;;22.01;36.24;100090.59;4937245;28;20047;-89
2023/05/29 11:11:41;;;;;;;6.57;3.45;;;;;;;22.12;36.56;100089.16;4931479;28;20150;-88
2023/05/29 11:14:11;;;;;;;7.20;3.42;;;;;;;22.09;36.39;100101.22;4922312;28;20127;-89
2023/05/29 11:16:38;;;;;;;5.93;3.65;;;;;;;22.15;36.73;100088.75;4949789;28;20051;-89
2023/05/29 11:19:10;;;;;;;5.00;3.15;;;;;;;22.20;36.04;100093.56;4950605;28;20047;-90
2023/05/29 11:22:03;;;;;;;9.30;3.63;;;;;;;22.19;35.22;100098.16;4937930;28;20043;-88
2023/05/29 11:24:30;;;;;;;5.00;3.60;;;;;;;22.16;36.16;100095.84;4944510;28;20054;-89
2023/05/29 11:27:00;;;;;;;9.55;4.10;;;;;;;22.28;35.38;100101.47;4936907;28;20057;-90
2023/05/29 11:29:29;;;;;;;6.18;3.22;;;;;;;22.29;35.33;100095.88;4952605;28;20042;-89
2023/05/29 11:32:09;;;;;;;6.28;3.78;;;;;;;22.21;35.47;100101.50;4934516;28;20517;-89
2023/05/29 11:34:39;;;;;;;8.63;3.53;;;;;;;22.29;35.08;100090.47;4934956;28;20066;-88
2023/05/29 11:37:06;;;;;;;5.07;3.92;;;;;;;22.30;35.64;100089.41;4926606;28;20114;-88
2023/05/29 11:39:36;;;;;;;9.25;3.95;;;;;;;22.33;36.47;100085.47;4930677;28;20051;-88